createdAt,value
2018-04-17T00:01:33.858Z,61.90
2018-04-17T00:04:01.433Z,62.50
2018-04-17T00:06:29.015Z,63.30
2018-04-17T00:08:56.629Z,62.10
2018-04-17T00:11:25.033Z,60.60
2018-04-17T00:13:52.638Z,60.60
2018-04-17T00:16:20.194Z,61.60
2018-04-17T00:18:49.285Z,63.10
2018-04-17T00:21:16.850Z,63.10
2018-04-17T00:23:45.207Z,63.40
2018-04-17T00:26:12.895Z,63.40
2018-04-17T00:28:41.261Z,62.00
2018-04-17T00:31:09.593Z,62.90
2018-04-17T00:33:37.293Z,62.90
2018-04-17T00:36:04.841Z,64.00
2018-04-17T00:38:32.536Z,64.80
2018-04-17T00:41:00.205Z,65.00
2018-04-17T00:43:28.565Z,66.40
2018-04-17T00:45:56.925Z,67.20
2018-04-17T00:48:24.488Z,67.20
2018-04-17T00:50:52.088Z,66.40
2018-04-17T00:53:31.656Z,65.10
2018-04-17T00:55:59.238Z,66.30
2018-04-17T00:58:26.886Z,65.30
2018-04-17T01:00:54.533Z,65.50
2018-04-17T01:03:22.089Z,65.50
2018-04-17T01:05:49.809Z,64.50
2018-04-17T01:08:17.359Z,64.00
2018-04-17T01:10:45.898Z,63.20
2018-04-17T01:13:13.448Z,63.20
2018-04-17T01:15:41.066Z,65.30
2018-04-17T01:18:08.694Z,65.60
2018-04-17T01:20:36.285Z,66.60
2018-04-17T01:23:03.853Z,65.90
2018-04-17T01:25:32.245Z,67.50
2018-04-17T01:27:59.805Z,67.50
2018-04-17T01:30:27.603Z,68.20
2018-04-17T01:32:55.284Z,68.50
2018-04-17T01:35:22.843Z,68.30
2018-04-17T01:37:50.469Z,67.10
2018-04-17T01:40:18.031Z,67.90
2018-04-17T01:42:45.609Z,68.10
2018-04-17T01:45:13.161Z,68.90
2018-04-17T01:47:40.744Z,70.20
2018-04-17T01:50:08.340Z,70.20
2018-04-17T01:52:35.927Z,69.50
2018-04-17T01:55:03.496Z,69.50
2018-04-17T01:57:31.260Z,68.60
2018-04-17T01:59:58.878Z,69.10
2018-04-17T02:02:27.193Z,70.30
2018-04-17T02:04:54.785Z,70.20
2018-04-17T02:07:22.549Z,70.50
2018-04-17T02:09:50.141Z,71.10
2018-04-17T02:12:17.698Z,70.80
2018-04-17T02:14:45.477Z,71.40
2018-04-17T02:17:13.051Z,71.90
2018-04-17T02:19:40.641Z,71.40
2018-04-17T02:22:08.220Z,71.30
2018-04-17T02:24:36.591Z,72.90
2018-04-17T02:27:04.276Z,72.90
2018-04-17T02:29:31.849Z,73.10
2018-04-17T02:31:59.425Z,72.80
2018-04-17T02:34:27.189Z,72.40
2018-04-17T02:36:54.770Z,70.80
2018-04-17T02:39:22.390Z,71.80
2018-04-17T02:41:50.001Z,72.80
2018-04-17T02:44:17.549Z,73.10
2018-04-17T02:46:45.132Z,73.10
2018-04-17T02:49:13.502Z,74.20
2018-04-17T02:51:41.072Z,74.20
2018-04-17T02:54:09.393Z,75.00
2018-04-17T02:56:37.117Z,75.60
2018-04-17T02:59:05.471Z,74.80
2018-04-17T03:01:33.046Z,74.80
2018-04-17T03:04:01.406Z,74.90
2018-04-17T03:06:28.957Z,74.90
2018-04-17T03:08:56.538Z,74.90
2018-04-17T03:11:24.881Z,75.90
2018-04-17T03:13:52.457Z,75.80
2018-04-17T03:16:20.777Z,75.90
2018-04-17T03:18:48.384Z,75.90
2018-04-17T03:21:15.954Z,76.20
2018-04-17T03:23:43.505Z,76.30
2018-04-17T03:26:11.161Z,76.20
2018-04-17T03:28:38.719Z,76.80
2018-04-17T03:31:06.320Z,76.20
2018-04-17T03:33:34.028Z,76.10
2018-04-17T03:36:01.589Z,76.00
2018-04-17T03:38:29.280Z,76.50
2018-04-17T03:40:57.614Z,77.00
2018-04-17T03:43:25.325Z,76.90
2018-04-17T03:45:53.637Z,76.60
2018-04-17T03:48:21.294Z,76.60
2018-04-17T03:50:48.846Z,77.60
2018-04-17T03:53:16.438Z,77.50
2018-04-17T03:55:44.014Z,77.20
2018-04-17T03:58:14.069Z,76.40
2018-04-17T04:00:41.627Z,76.40
2018-04-17T04:03:09.222Z,77.20
2018-04-17T04:05:36.785Z,78.50
2018-04-17T04:08:04.425Z,77.90
2018-04-17T04:10:32.006Z,78.40
2018-04-17T04:12:59.591Z,78.70
2018-04-17T04:15:27.174Z,78.60
2018-04-17T04:18:06.700Z,78.50
2018-04-17T04:20:46.838Z,78.20
2018-04-17T04:23:27.009Z,77.10
2018-04-17T04:26:07.255Z,77.00
2018-04-17T04:28:35.629Z,77.90
2018-04-17T04:31:04.572Z,77.70
2018-04-17T04:33:32.152Z,77.50
2018-04-17T04:35:59.832Z,76.00
2018-04-17T04:38:27.397Z,75.80
2018-04-17T04:40:55.754Z,76.60
2018-04-17T04:43:23.314Z,76.40
2018-04-17T04:45:50.922Z,76.80
2018-04-17T04:48:18.484Z,77.40
2018-04-17T04:50:46.064Z,78.40
2018-04-17T04:53:13.658Z,80.00
2018-04-17T04:55:42.021Z,81.00
2018-04-17T04:58:09.635Z,81.00
2018-04-17T05:00:37.213Z,81.10
2018-04-17T05:03:04.806Z,78.50
2018-04-17T05:05:32.463Z,77.80
2018-04-17T05:08:00.074Z,78.30
2018-04-17T05:10:27.906Z,78.90
2018-04-17T05:12:55.573Z,79.50
2018-04-17T05:15:23.224Z,80.20
2018-04-17T05:17:50.790Z,80.00
2018-04-17T05:20:19.133Z,80.10
2018-04-17T05:22:46.834Z,80.00
2018-04-17T05:25:15.319Z,79.30
2018-04-17T05:27:43.730Z,79.30
2018-04-17T05:30:11.317Z,79.30
2018-04-17T05:32:38.904Z,78.80
2018-04-17T05:35:06.708Z,78.60
2018-04-17T05:37:34.301Z,78.90
2018-04-17T05:40:01.866Z,78.20
2018-04-17T05:42:29.431Z,77.10
2018-04-17T05:44:57.005Z,75.40
2018-04-17T05:47:25.474Z,77.20
2018-04-17T05:49:53.040Z,77.10
2018-04-17T05:52:20.633Z,76.20
2018-04-17T05:54:48.380Z,77.40
2018-04-17T05:57:16.910Z,76.80
2018-04-17T05:59:44.477Z,76.90
2018-04-17T06:02:12.245Z,74.70
2018-04-17T06:04:39.828Z,74.30
2018-04-17T06:07:08.154Z,75.20
2018-04-17T06:09:35.745Z,75.10
2018-04-17T06:12:04.061Z,74.00
2018-04-17T06:14:31.641Z,74.10
2018-04-17T06:16:59.250Z,72.70
2018-04-17T06:19:26.847Z,71.30
2018-04-17T06:21:54.406Z,71.70
2018-04-17T06:24:21.997Z,72.40
2018-04-17T06:26:49.553Z,70.90
2018-04-17T06:29:17.166Z,70.70
2018-04-17T06:31:44.729Z,70.20
2018-04-17T06:34:12.308Z,69.80
2018-04-17T06:36:39.873Z,70.00
2018-04-17T06:39:07.474Z,70.10
2018-04-17T06:41:35.026Z,67.90
2018-04-17T06:44:02.601Z,65.80
2018-04-17T06:46:30.937Z,64.00
2018-04-17T06:48:58.565Z,64.10
2018-04-17T06:51:26.149Z,64.60
2018-04-17T06:53:53.782Z,65.00
2018-04-17T06:56:21.373Z,63.30
2018-04-17T06:58:49.308Z,65.20
2018-04-17T07:01:16.890Z,64.60
2018-04-17T07:03:44.530Z,64.50
2018-04-17T07:06:12.135Z,65.50
2018-04-17T07:08:39.697Z,64.00
2018-04-17T07:11:08.057Z,59.40
2018-04-17T07:13:35.745Z,59.40
2018-04-17T07:16:03.341Z,58.40
2018-04-17T07:18:30.905Z,60.00
2018-04-17T07:20:58.461Z,59.90
2018-04-17T07:23:26.074Z,58.20
2018-04-17T07:25:53.645Z,56.60
2018-04-17T07:28:21.229Z,55.10
2018-04-17T07:30:48.909Z,52.60
2018-04-17T07:33:16.520Z,55.00
2018-04-17T07:35:44.070Z,55.20
2018-04-17T07:38:11.649Z,53.20
2018-04-17T07:40:39.993Z,49.40
2018-04-17T07:43:07.597Z,49.40
2018-04-17T07:45:36.093Z,50.30
2018-04-17T07:51:08.238Z,51.50
2018-04-17T07:53:35.826Z,49.60
2018-04-17T07:56:03.411Z,48.90
2018-04-17T07:58:31.021Z,51.00
2018-04-17T08:00:58.584Z,52.00
2018-04-17T08:03:26.956Z,47.20
2018-04-17T08:05:54.541Z,47.10
2018-04-17T08:08:22.208Z,50.00
2018-04-17T08:10:49.805Z,48.30
2018-04-17T08:13:17.478Z,48.90
2018-04-17T08:15:45.060Z,51.00
2018-04-17T08:18:13.532Z,47.30
2018-04-17T08:20:41.138Z,47.30
2018-04-17T08:23:08.717Z,49.20
2018-04-17T08:25:36.307Z,48.20
2018-04-17T08:28:03.880Z,46.30
2018-04-17T08:30:32.231Z,47.70
2018-04-17T08:32:59.793Z,47.70
2018-04-17T08:35:27.428Z,46.00
2018-04-17T08:37:55.122Z,46.90
2018-04-17T08:40:23.484Z,45.40
2018-04-17T08:42:51.059Z,44.90
2018-04-17T08:45:18.618Z,47.00
2018-04-17T08:47:46.378Z,44.10
2018-04-17T08:50:13.927Z,46.20
2018-04-17T08:52:41.547Z,42.40
2018-04-17T08:55:09.121Z,42.30
2018-04-17T08:57:36.874Z,44.40
2018-04-17T09:00:04.426Z,45.20
2018-04-17T09:02:32.016Z,48.10
2018-04-17T09:04:59.596Z,47.70
2018-04-17T09:07:27.200Z,46.10
2018-04-17T09:09:54.768Z,44.70
2018-04-17T09:12:22.363Z,43.10
2018-04-17T09:14:50.037Z,42.80
2018-04-17T09:17:17.669Z,44.10
2018-04-17T09:19:45.236Z,43.50
2018-04-17T09:22:12.915Z,41.40
2018-04-17T09:24:40.511Z,45.60
2018-04-17T09:27:08.079Z,45.70
2018-04-17T09:29:35.698Z,43.90
2018-04-17T09:32:04.043Z,38.60
2018-04-17T09:34:31.764Z,38.40
2018-04-17T09:37:00.138Z,42.10
2018-04-17T09:39:27.729Z,41.90
2018-04-17T09:41:55.318Z,42.60
2018-04-17T09:44:22.954Z,43.50
2018-04-17T09:46:50.545Z,44.10
2018-04-17T09:49:18.112Z,44.30
2018-04-17T09:51:46.473Z,39.90
2018-04-17T09:54:14.029Z,39.80
2018-04-17T09:56:41.762Z,40.00
2018-04-17T09:59:09.330Z,39.40
2018-04-17T10:01:36.966Z,40.30
2018-04-17T10:04:04.691Z,40.70
2018-04-17T10:06:33.059Z,40.10
2018-04-17T10:09:00.821Z,40.00
2018-04-17T10:11:28.362Z,43.20
2018-04-17T10:13:56.021Z,41.20
2018-04-17T10:16:23.604Z,43.20
2018-04-17T10:18:51.939Z,43.60
2018-04-17T10:21:19.492Z,43.60
2018-04-17T10:23:47.104Z,43.20
2018-04-17T10:26:15.671Z,42.70
2018-04-17T10:28:43.282Z,42.50
2018-04-17T10:31:10.867Z,42.90
2018-04-17T10:33:38.457Z,44.10
2018-04-17T10:36:06.993Z,38.80
2018-04-17T10:38:34.581Z,38.70
2018-04-17T10:41:02.145Z,40.60
2018-04-17T10:43:29.969Z,41.40
2018-04-17T10:45:57.960Z,42.30
2018-04-17T10:48:25.546Z,43.20
2018-04-17T10:50:54.090Z,39.60
2018-04-17T10:53:21.721Z,39.00
2018-04-17T10:55:49.320Z,40.90
2018-04-17T10:58:16.889Z,39.20
2018-04-17T11:00:45.261Z,38.40
2018-04-17T11:03:12.899Z,38.30
2018-04-17T11:05:40.451Z,36.30
2018-04-17T11:08:08.017Z,38.20
2018-04-17T11:10:35.602Z,39.50
2018-04-17T11:13:03.158Z,41.60
2018-04-17T11:15:30.777Z,35.50
2018-04-17T11:17:58.343Z,36.10
2018-04-17T11:20:26.152Z,39.00
2018-04-17T11:22:53.713Z,35.70
2018-04-17T11:25:22.195Z,37.60
2018-04-17T11:27:50.636Z,39.50
2018-04-17T11:30:18.388Z,39.50
2018-04-17T11:32:45.946Z,36.50
2018-04-17T11:35:13.550Z,35.70
2018-04-17T11:37:41.114Z,36.60
2018-04-17T11:40:09.468Z,35.50
2018-04-17T11:42:37.099Z,35.50
2018-04-17T11:45:04.789Z,34.00
2018-04-17T11:47:32.365Z,33.10
2018-04-17T11:49:59.956Z,37.20
2018-04-17T11:52:27.553Z,36.60
2018-04-17T11:54:55.184Z,34.40
2018-04-17T11:57:22.855Z,35.70
2018-04-17T11:59:50.405Z,37.20
2018-04-17T12:02:18.194Z,33.00
2018-04-17T12:04:45.773Z,35.40
2018-04-17T12:07:13.369Z,36.60
2018-04-17T12:09:41.059Z,38.10
2018-04-17T12:12:08.753Z,39.20
2018-04-17T12:14:36.322Z,38.10
2018-04-17T12:17:04.689Z,34.60
2018-04-17T12:19:32.256Z,34.60
2018-04-17T12:21:59.870Z,32.20
2018-04-17T12:24:27.486Z,34.00
2018-04-17T12:26:55.981Z,32.70
2018-04-17T12:29:23.574Z,32.70
2018-04-17T12:31:51.163Z,30.40
2018-04-17T12:34:18.794Z,30.30
2018-04-17T12:36:46.345Z,32.00
2018-04-17T12:39:14.053Z,34.60
2018-04-17T12:41:41.769Z,35.30
2018-04-17T12:44:09.372Z,34.00
2018-04-17T12:46:36.933Z,33.00
2018-04-17T12:49:04.487Z,35.20
2018-04-17T12:51:32.173Z,35.00
2018-04-17T12:54:00.509Z,32.20
2018-04-17T12:56:28.089Z,32.60
2018-04-17T12:58:56.417Z,32.50
2018-04-17T13:01:24.098Z,32.40
2018-04-17T13:03:51.654Z,36.00
2018-04-17T13:06:19.276Z,33.10
2018-04-17T13:08:46.873Z,34.40
2018-04-17T13:11:14.461Z,33.40
2018-04-17T13:13:42.018Z,33.50
2018-04-17T13:16:09.729Z,35.00
2018-04-17T13:18:37.349Z,34.10
2018-04-17T13:21:05.718Z,36.50
2018-04-17T13:23:33.285Z,36.50
2018-04-17T13:26:01.692Z,38.60
2018-04-17T13:28:29.264Z,38.70
2018-04-17T13:30:56.829Z,35.90
2018-04-17T13:33:24.420Z,33.60
2018-04-17T13:35:52.076Z,32.80
2018-04-17T13:38:19.661Z,34.80
2018-04-17T13:40:47.993Z,35.00
2018-04-17T13:43:15.689Z,35.00
2018-04-17T13:45:44.046Z,38.10
2018-04-17T13:48:11.701Z,38.00
2018-04-17T13:50:39.261Z,35.40
2018-04-17T13:53:06.932Z,36.20
2018-04-17T13:55:34.500Z,35.40
2018-04-17T13:58:02.106Z,34.00
2018-04-17T14:00:29.682Z,35.20
2018-04-17T14:02:57.389Z,35.80
2018-04-17T14:05:25.715Z,37.00
2018-04-17T14:07:53.498Z,37.00
2018-04-17T14:10:21.214Z,37.00
2018-04-17T14:12:48.782Z,36.50
2018-04-17T14:15:16.373Z,37.40
2018-04-17T14:17:43.939Z,37.30
2018-04-17T14:20:11.621Z,36.50
2018-04-17T14:22:39.957Z,36.00
2018-04-17T14:25:07.629Z,35.90
2018-04-17T14:27:35.190Z,36.70
2018-04-17T14:30:02.743Z,36.20
2018-04-17T14:32:30.377Z,36.70
2018-04-17T14:34:57.977Z,36.50
2018-04-17T14:37:25.561Z,36.10
2018-04-17T14:39:53.887Z,40.60
2018-04-17T14:42:21.469Z,40.40
2018-04-17T14:44:49.029Z,34.60
2018-04-17T14:47:17.315Z,34.10
2018-04-17T14:49:45.645Z,32.80
2018-04-17T14:52:13.253Z,32.80
2018-04-17T14:54:40.813Z,33.10
2018-04-17T14:57:09.173Z,35.80
2018-04-17T14:59:36.747Z,35.80
2018-04-17T15:02:04.342Z,36.40
2018-04-17T15:04:31.891Z,37.10
2018-04-17T15:06:59.485Z,36.10
2018-04-17T15:09:27.044Z,37.50
2018-04-17T15:11:54.644Z,36.00
2018-04-17T15:14:22.996Z,35.50
2018-04-17T15:16:50.594Z,35.50
2018-04-17T15:19:18.922Z,35.20
2018-04-17T15:21:46.535Z,35.20
2018-04-17T15:24:14.149Z,35.90
2018-04-17T15:26:41.812Z,36.40
2018-04-17T15:29:09.416Z,35.60
2018-04-17T15:31:36.990Z,37.00
2018-04-17T15:34:04.606Z,34.20
2018-04-17T15:36:32.940Z,36.10
2018-04-17T15:39:00.557Z,36.20
2018-04-17T15:41:28.904Z,34.00
2018-04-17T15:43:56.626Z,34.00
2018-04-17T15:46:24.206Z,34.70
2018-04-17T15:48:51.806Z,37.80
2018-04-17T15:51:20.257Z,36.90
2018-04-17T15:53:47.856Z,36.80
2018-04-17T15:56:15.474Z,34.60
2018-04-17T15:58:43.264Z,35.00
2018-04-17T16:01:11.601Z,35.50
2018-04-17T16:03:39.233Z,35.20
2018-04-17T16:06:06.853Z,35.80
2018-04-17T16:08:34.471Z,37.00
2018-04-17T16:11:02.050Z,37.40
2018-04-17T16:13:29.629Z,32.00
2018-04-17T16:15:57.488Z,33.30
2018-04-17T16:18:25.960Z,35.50
2018-04-17T16:20:53.553Z,35.40
2018-04-17T16:23:22.122Z,35.70
2018-04-17T16:25:49.794Z,35.70
2018-04-17T16:28:18.122Z,37.70
2018-04-17T16:30:45.738Z,37.60
2018-04-17T16:33:13.315Z,37.20
2018-04-17T16:35:40.977Z,38.00
2018-04-17T16:38:08.637Z,38.80
2018-04-17T16:40:36.373Z,36.80
2018-04-17T16:43:04.716Z,36.60
2018-04-17T16:45:32.388Z,36.60
2018-04-17T16:48:00.098Z,37.40
2018-04-17T16:50:27.709Z,36.70
2018-04-17T16:52:55.280Z,37.60
2018-04-17T16:55:23.649Z,40.10
2018-04-17T16:57:51.251Z,40.00
2018-04-17T17:00:18.865Z,37.90
2018-04-17T17:02:46.551Z,38.90
2018-04-17T17:05:14.917Z,39.70
2018-04-17T17:07:43.286Z,40.10
2018-04-17T17:10:10.854Z,40.10
2018-04-17T17:12:39.215Z,40.30
2018-04-17T17:15:06.947Z,40.30
2018-04-17T17:17:34.605Z,41.30
2018-04-17T17:20:02.170Z,41.70
2018-04-17T17:22:29.765Z,40.60
2018-04-17T17:24:58.133Z,42.00
2018-04-17T17:27:25.803Z,42.00
2018-04-17T17:29:54.300Z,42.00
2018-04-17T17:32:22.661Z,41.90
2018-04-17T17:34:51.031Z,41.40
2018-04-17T17:37:19.422Z,44.10
2018-04-17T17:39:47.049Z,43.70
2018-04-17T17:42:14.678Z,42.40
2018-04-17T17:44:42.289Z,42.60
2018-04-17T17:47:09.849Z,42.20
2018-04-17T17:49:37.439Z,41.70
2018-04-17T17:52:05.091Z,42.10
2018-04-17T17:54:32.718Z,42.80
2018-04-17T17:57:00.290Z,43.70
2018-04-17T17:59:28.652Z,44.40
2018-04-17T18:01:56.262Z,43.80
2018-04-17T18:04:23.865Z,43.70
2018-04-17T18:06:51.589Z,44.10
2018-04-17T18:09:19.173Z,46.40
2018-04-17T18:11:46.814Z,47.00
2018-04-17T18:14:14.387Z,47.30
2018-04-17T18:16:41.997Z,45.80
2018-04-17T18:19:10.362Z,47.20
2018-04-17T18:21:38.770Z,46.30
2018-04-17T18:24:06.533Z,46.40
2018-04-17T18:26:34.190Z,46.60
2018-04-17T18:29:01.756Z,48.50
2018-04-17T18:31:29.369Z,46.50
2018-04-17T18:33:56.971Z,47.50
2018-04-17T18:36:24.557Z,48.10
2018-04-17T18:38:52.350Z,46.90
2018-04-17T18:41:19.921Z,49.20
2018-04-17T18:43:48.294Z,48.40
2018-04-17T18:46:16.641Z,49.40
2018-04-17T18:48:44.421Z,49.30
2018-04-17T18:51:11.989Z,49.00
2018-04-17T18:53:39.604Z,47.70
2018-04-17T18:56:07.233Z,49.00
2018-04-17T18:58:34.802Z,48.50
2018-04-17T19:01:02.474Z,49.40
2018-04-17T19:03:30.061Z,49.60
2018-04-17T19:05:57.652Z,49.70
2018-04-17T19:08:26.007Z,50.00
2018-04-17T19:10:54.584Z,52.30
2018-04-17T19:13:22.208Z,52.30
2018-04-17T19:15:49.930Z,50.30
2018-04-17T19:18:18.282Z,51.20
2018-04-17T19:20:45.973Z,51.20
2018-04-17T19:23:14.309Z,50.20
2018-04-17T19:25:41.938Z,50.20
2018-04-17T19:28:09.569Z,50.70
2018-04-17T19:30:37.959Z,52.20
2018-04-17T19:33:05.630Z,52.10
2018-04-17T19:35:33.221Z,51.80
2018-04-17T19:38:00.791Z,52.40
2018-04-17T19:40:28.499Z,51.00
2018-04-17T19:42:56.842Z,52.40
2018-04-17T19:45:25.253Z,52.70
2018-04-17T19:47:53.017Z,52.70
2018-04-17T19:50:21.373Z,51.20
2018-04-17T19:52:48.962Z,51.20
2018-04-17T19:55:16.533Z,51.30
2018-04-17T19:57:44.148Z,52.30
2018-04-17T20:00:12.559Z,54.20
2018-04-17T20:02:40.161Z,54.20
2018-04-17T20:05:07.815Z,53.30
2018-04-17T20:07:35.359Z,52.20
2018-04-17T20:10:02.986Z,53.50
2018-04-17T20:12:30.638Z,52.90
2018-04-17T20:14:59.025Z,54.60
2018-04-17T20:17:26.610Z,54.60
2018-04-17T20:19:54.216Z,55.30
2018-04-17T20:22:21.866Z,54.00
2018-04-17T20:24:50.987Z,54.10
2018-04-17T20:27:19.334Z,53.30
2018-04-17T20:29:46.940Z,53.30
2018-04-17T20:32:14.546Z,53.10
2018-04-17T20:34:42.229Z,53.00
2018-04-17T20:37:09.951Z,53.10
2018-04-17T20:39:37.538Z,54.30
2018-04-17T20:42:05.233Z,53.20
2018-04-17T20:44:33.606Z,52.10
2018-04-17T20:47:01.982Z,52.10
2018-04-17T20:49:30.368Z,52.30
2018-04-17T20:51:58.046Z,52.20
2018-04-17T20:54:25.627Z,52.50
2018-04-17T20:56:53.221Z,52.40
2018-04-17T20:59:20.829Z,53.20
2018-04-17T21:01:48.521Z,53.10
2018-04-17T21:04:16.212Z,53.20
2018-04-17T21:06:44.547Z,53.50
2018-04-17T21:09:12.292Z,53.50
2018-04-17T21:11:39.862Z,54.30
2018-04-17T21:14:07.452Z,54.20
2018-04-17T21:16:35.052Z,54.20
2018-04-17T21:19:02.627Z,54.40
2018-04-17T21:21:30.204Z,53.10
2018-04-17T21:23:57.795Z,54.50
2018-04-17T21:26:25.446Z,54.90
2018-04-17T21:28:53.042Z,55.20
2018-04-17T21:31:20.637Z,56.90
2018-04-17T21:33:48.302Z,56.10
2018-04-17T21:36:15.909Z,55.70
2018-04-17T21:38:44.261Z,55.80
2018-04-17T21:41:11.836Z,55.80
2018-04-17T21:43:40.202Z,56.90
2018-04-17T21:46:08.545Z,56.80
2018-04-17T21:48:36.141Z,56.70
2018-04-17T21:51:03.898Z,58.20
2018-04-17T21:53:31.490Z,57.90
2018-04-17T21:55:59.102Z,58.80
2018-04-17T21:58:27.257Z,58.40
2018-04-17T22:00:54.961Z,58.60
2018-04-17T22:03:22.629Z,58.80
2018-04-17T22:05:50.975Z,59.90
2018-04-17T22:08:18.560Z,59.90
2018-04-17T22:10:46.918Z,57.70
2018-04-17T22:13:14.482Z,57.70
2018-04-17T22:15:42.189Z,57.30
2018-04-17T22:18:09.776Z,57.20
2018-04-17T22:20:37.333Z,58.30
2018-04-17T22:23:05.058Z,57.90
2018-04-17T22:25:32.621Z,58.20
2018-04-17T22:28:00.237Z,59.90
2018-04-17T22:30:27.877Z,60.20
2018-04-17T22:32:55.477Z,61.30
2018-04-17T22:35:23.817Z,61.70
2018-04-17T22:37:51.426Z,61.60
2018-04-17T22:40:19.767Z,60.90
2018-04-17T22:42:47.341Z,60.90
2018-04-17T22:45:14.918Z,60.60
2018-04-17T22:47:43.314Z,63.60
2018-04-17T22:50:10.901Z,63.60
2018-04-17T22:52:38.457Z,63.10
2018-04-17T22:55:06.055Z,64.20
2018-04-17T22:57:34.398Z,65.00
2018-04-17T23:00:02.129Z,65.00
2018-04-17T23:02:29.850Z,64.20
2018-04-17T23:04:57.665Z,63.20
2018-04-17T23:07:25.229Z,64.40
2018-04-17T23:09:52.840Z,63.60
2018-04-17T23:12:21.197Z,64.50
2018-04-17T23:14:48.833Z,64.30
2018-04-17T23:17:16.412Z,66.10
2018-04-17T23:19:44.202Z,65.90
2018-04-17T23:22:14.348Z,66.40
2018-04-17T23:24:41.967Z,66.40
2018-04-17T23:27:09.565Z,65.40
2018-04-17T23:29:37.144Z,66.10
2018-04-17T23:32:04.856Z,65.10
2018-04-17T23:34:33.196Z,64.80
2018-04-17T23:37:00.808Z,64.70
2018-04-17T23:39:29.164Z,66.50
2018-04-17T23:41:57.531Z,66.80
2018-04-17T23:44:25.114Z,66.70
2018-04-17T23:46:53.650Z,67.90
2018-04-17T23:49:21.247Z,67.90
2018-04-17T23:51:48.840Z,67.80
2018-04-17T23:54:16.414Z,66.00
2018-04-17T23:56:44.009Z,66.70
2018-04-17T23:59:11.612Z,67.00
